Time;durP1;ratioP1;P1;durP2;ratioP2;P2;SDS_P1;SDS_P2;PMS_P1;PMS_P2;Temp;Humidity;BMP_temperature;BMP_pressure;BME280_temperature;BME280_humidity;BME280_pressure;Samples;Min_cycle;Max_cycle;Signal;HPM_P1;HPM_P2
2022/07/29 00:01:21;;;;;;;16.27;10.93;;;27.10;58.60;;;;;;6245782;23;20011;-73
2022/07/29 00:03:47;;;;;;;17.13;11.45;;;27.10;58.90;;;;;;6245352;22;20007;-68
2022/07/29 00:06:12;;;;;;;16.83;10.55;;;27.00;58.70;;;;;;6245019;22;20011;-72
2022/07/29 00:08:38;;;;;;;17.23;11.25;;;27.00;58.80;;;;;;6245152;22;20000;-69
2022/07/29 00:11:04;;;;;;;23.17;11.52;;;27.00;58.60;;;;;;6245325;22;20088;-74
2022/07/29 00:13:29;;;;;;;18.75;12.18;;;27.00;58.60;;;;;;6245145;22;20380;-69
2022/07/29 00:15:55;;;;;;;18.17;10.75;;;27.00;58.50;;;;;;6245064;23;19992;-71
2022/07/29 00:18:21;;;;;;;18.10;9.93;;;27.00;58.20;;;;;;6245073;23;20087;-68
2022/07/29 00:20:46;;;;;;;17.77;9.68;;;27.00;58.20;;;;;;6245275;23;20027;-68
2022/07/29 00:23:12;;;;;;;20.35;9.93;;;26.90;58.40;;;;;;6245049;23;20058;-67
2022/07/29 00:25:38;;;;;;;16.25;10.02;;;26.90;58.60;;;;;;6244867;23;20095;-68
2022/07/29 00:28:04;;;;;;;14.63;10.00;;;26.90;58.50;;;;;;6244984;22;20450;-69
2022/07/29 00:30:29;;;;;;;12.40;9.13;;;26.90;58.60;;;;;;6245160;23;20419;-68
2022/07/29 00:32:55;;;;;;;13.90;9.40;;;26.80;58.40;;;;;;6245043;23;20000;-67
2022/07/29 00:38:05;;;;;;;15.45;8.95;;;26.80;58.10;;;;;;6244999;23;20469;-67
2022/07/29 00:40:30;;;;;;;15.48;8.35;;;26.70;58.70;;;;;;6244845;23;20174;-67
2022/07/29 00:42:56;;;;;;;14.07;7.60;;;26.70;59.10;;;;;;6244911;23;20011;-68
2022/07/29 00:45:22;;;;;;;14.07;8.70;;;26.70;58.50;;;;;;6245066;22;20383;-67
2022/07/29 00:47:47;;;;;;;12.32;7.20;;;26.70;58.80;;;;;;6244649;23;20071;-68
2022/07/29 00:50:13;;;;;;;10.52;7.03;;;26.70;59.10;;;;;;6245080;23;20526;-68
2022/07/29 00:52:41;;;;;;;12.60;5.78;;;26.60;58.40;;;;;;6244847;22;20390;-68
2022/07/29 00:55:11;;;;;;;7.10;5.70;;;26.60;58.50;;;;;;6244887;22;20430;-68
2022/07/29 00:57:37;;;;;;;7.68;5.75;;;26.60;58.30;;;;;;6243713;22;20012;-69
2022/07/29 01:00:04;;;;;;;6.43;5.55;;;26.50;58.30;;;;;;6241534;22;20058;-67
2022/07/29 01:02:30;;;;;;;7.30;5.55;;;26.50;58.30;;;;;;6241666;22;20062;-68
2022/07/29 01:04:57;;;;;;;6.85;5.85;;;26.50;58.30;;;;;;6243415;22;20028;-70
2022/07/29 01:07:25;;;;;;;12.20;6.25;;;26.50;58.30;;;;;;6244705;22;20452;-73
2022/07/29 01:09:52;;;;;;;9.35;5.65;;;26.50;58.20;;;;;;6244914;22;20000;-68
2022/07/29 01:12:24;;;;;;;8.68;5.57;;;26.50;58.20;;;;;;6244033;22;20008;-68
2022/07/29 01:14:51;;;;;;;7.07;5.50;;;26.50;58.60;;;;;;6244058;22;20119;-67
2022/07/29 01:17:35;;;;;;;10.02;5.65;;;26.50;58.90;;;;;;6244550;22;20011;-68
2022/07/29 01:20:30;;;;;;;10.13;5.78;;;26.40;58.60;;;;;;6243717;23;20099;-68
2022/07/29 01:23:24;;;;;;;6.80;5.63;;;26.40;58.70;;;;;;6238154;23;20008;-68
2022/07/29 01:25:49;;;;;;;7.78;5.05;;;26.40;58.50;;;;;;6244296;23;20481;-69
2022/07/29 01:28:36;;;;;;;5.57;4.55;;;26.40;58.00;;;;;;6243845;23;20086;-69
2022/07/29 01:31:04;;;;;;;6.68;5.00;;;26.40;58.00;;;;;;6244143;23;20451;-72
2022/07/29 01:33:48;;;;;;;6.13;4.60;;;26.40;57.80;;;;;;6244352;22;20000;-70
2022/07/29 01:36:36;;;;;;;9.07;4.95;;;26.40;57.70;;;;;;6244108;22;20387;-72
2022/07/29 01:39:11;;;;;;;9.07;4.45;;;26.30;57.50;;;;;;6243815;23;20466;-69
2022/07/29 01:41:43;;;;;;;7.68;4.68;;;26.30;57.60;;;;;;6244485;22;20008;-73
2022/07/29 01:44:18;;;;;;;5.95;4.45;;;26.30;57.30;;;;;;6244567;22;20000;-68
2022/07/29 01:46:52;;;;;;;5.28;4.68;;;26.30;57.20;;;;;;6244476;22;20020;-67
2022/07/29 01:49:22;;;;;;;6.57;4.82;;;26.20;57.10;;;;;;6244233;22;20615;-68
2022/07/29 01:52:02;;;;;;;9.30;5.00;;;26.20;56.90;;;;;;6244190;22;20011;-74
2022/07/29 01:54:42;;;;;;;7.05;4.60;;;26.20;57.10;;;;;;6244401;22;20000;-68
2022/07/29 01:57:10;;;;;;;8.50;5.63;;;26.20;57.60;;;;;;6244458;22;20011;-68
2022/07/29 01:59:38;;;;;;;11.45;5.78;;;26.20;57.80;;;;;;6244547;22;20012;-68
2022/07/29 02:02:08;;;;;;;8.65;6.00;;;26.20;57.70;;;;;;6245472;22;20012;-73
2022/07/29 02:04:36;;;;;;;9.55;6.25;;;26.10;58.10;;;;;;6245902;22;20008;-68
2022/07/29 02:07:05;;;;;;;7.82;6.07;;;26.10;58.30;;;;;;6245943;22;20015;-78
2022/07/29 02:09:35;;;;;;;7.40;5.68;;;26.10;57.90;;;;;;6245614;22;20015;-77
2022/07/29 02:12:03;;;;;;;8.75;6.00;;;26.10;57.70;;;;;;6245768;22;20492;-78
2022/07/29 02:14:33;;;;;;;8.00;5.30;;;26.10;57.60;;;;;;6246186;22;20023;-78
2022/07/29 02:17:01;;;;;;;9.52;5.82;;;26.10;57.50;;;;;;6246182;22;20382;-78
2022/07/29 02:19:29;;;;;;;9.82;5.75;;;26.10;57.70;;;;;;6245475;22;20008;-77
2022/07/29 02:21:57;;;;;;;6.65;4.95;;;26.10;57.10;;;;;;6245870;22;20338;-72
2022/07/29 02:24:25;;;;;;;9.65;4.55;;;26.10;56.80;;;;;;6245376;22;20304;-75
2022/07/29 02:26:54;;;;;;;5.32;4.07;;;26.10;56.50;;;;;;6244999;22;20067;-78
2022/07/29 02:29:24;;;;;;;10.82;4.55;;;26.10;56.10;;;;;;6245338;22;20011;-78
2022/07/29 02:31:52;;;;;;;6.28;4.40;;;26.10;56.10;;;;;;6245393;22;20028;-78
2022/07/29 02:34:19;;;;;;;6.05;4.55;;;26.20;56.10;;;;;;6245372;22;20007;-73
2022/07/29 02:36:45;;;;;;;6.47;4.65;;;26.20;56.00;;;;;;6245428;22;20004;-69
2022/07/29 02:39:14;;;;;;;7.10;4.65;;;26.20;56.10;;;;;;6245138;23;20023;-72
2022/07/29 02:41:51;;;;;;;7.68;5.70;;;26.20;56.10;;;;;;6245662;22;19996;-67
2022/07/29 02:44:20;;;;;;;10.35;5.28;;;26.20;57.10;;;;;;6245667;22;20034;-77
2022/07/29 02:47:18;;;;;;;7.20;5.30;;;26.20;58.00;;;;;;6245344;22;20009;-77
2022/07/29 02:49:55;;;;;;;12.20;5.68;;;26.20;58.70;;;;;;6247231;22;20392;-69
2022/07/29 02:52:52;;;;;;;7.15;5.03;;;26.00;59.10;;;;;;6247637;22;20006;-68
2022/07/29 02:55:36;;;;;;;12.25;5.10;;;26.00;59.60;;;;;;6247472;22;20019;-74
2022/07/29 02:58:07;;;;;;;8.13;5.32;;;26.00;60.30;;;;;;6247759;23;20099;-78
2022/07/29 03:00:37;;;;;;;6.45;4.93;;;26.00;60.20;;;;;;6247608;22;20051;-79
2022/07/29 03:03:08;;;;;;;14.30;4.82;;;25.90;60.30;;;;;;6247687;22;20088;-78
2022/07/29 03:05:35;;;;;;;8.00;4.57;;;25.80;60.30;;;;;;6247497;22;20000;-78
2022/07/29 03:08:04;;;;;;;7.35;4.72;;;25.80;60.50;;;;;;6247834;22;20012;-77
2022/07/29 03:10:30;;;;;;;8.18;5.40;;;25.80;61.10;;;;;;6247180;22;20000;-78
2022/07/29 03:12:57;;;;;;;11.25;7.63;;;25.70;61.30;;;;;;6247293;22;20011;-68
2022/07/29 03:15:24;;;;;;;18.05;7.88;;;25.70;61.80;;;;;;6247397;22;20000;-77
2022/07/29 03:17:51;;;;;;;12.73;8.27;;;25.70;61.80;;;;;;6246974;22;20039;-77
2022/07/29 03:20:17;;;;;;;9.35;7.60;;;25.70;61.70;;;;;;6247201;22;20011;-77
2022/07/29 03:22:46;;;;;;;14.70;7.82;;;25.70;62.50;;;;;;6247411;22;20015;-76
2022/07/29 03:25:13;;;;;;;10.30;7.53;;;25.70;62.20;;;;;;6247525;22;20037;-77
2022/07/29 03:27:39;;;;;;;11.05;7.78;;;25.60;62.10;;;;;;6247191;22;20587;-77
2022/07/29 03:30:06;;;;;;;8.45;5.85;;;25.60;61.80;;;;;;6247052;22;20004;-69
2022/07/29 03:32:32;;;;;;;7.95;4.28;;;25.60;61.10;;;;;;6247231;22;20323;-73
2022/07/29 03:34:58;;;;;;;5.93;4.13;;;25.60;59.60;;;;;;6247429;22;20071;-78
2022/07/29 03:37:24;;;;;;;6.85;3.50;;;25.60;58.30;;;;;;6247096;23;20004;-77
2022/07/29 03:39:52;;;;;;;8.35;4.10;;;25.60;57.50;;;;;;6246800;22;20004;-78
2022/07/29 03:42:20;;;;;;;3.58;2.90;;;25.70;56.70;;;;;;6246974;22;20003;-78
2022/07/29 03:44:48;;;;;;;4.95;2.90;;;25.80;56.30;;;;;;6246972;22;20032;-68
2022/07/29 03:47:16;;;;;;;4.93;3.03;;;25.80;56.10;;;;;;6245226;23;20493;-78
2022/07/29 03:49:44;;;;;;;5.28;3.22;;;25.80;55.90;;;;;;6247331;22;20008;-71
2022/07/29 03:52:10;;;;;;;5.90;3.20;;;25.90;56.00;;;;;;6247034;22;20063;-78
2022/07/29 03:54:36;;;;;;;4.20;2.78;;;25.90;55.90;;;;;;6246642;23;20023;-76
2022/07/29 03:57:03;;;;;;;6.43;3.10;;;25.90;55.70;;;;;;6247455;22;20004;-69
2022/07/29 03:59:32;;;;;;;5.53;2.90;;;26.00;55.50;;;;;;6247068;22;20028;-77
2022/07/29 04:01:58;;;;;;;4.82;3.10;;;26.00;55.50;;;;;;6246846;22;20012;-67
2022/07/29 04:04:25;;;;;;;6.78;3.88;;;26.10;55.70;;;;;;6246663;22;20008;-78
2022/07/29 04:06:51;;;;;;;7.28;4.43;;;26.10;56.40;;;;;;6246444;23;20000;-68
2022/07/29 04:09:16;;;;;;;9.48;5.00;;;26.10;57.30;;;;;;6247100;23;20008;-68
2022/07/29 04:11:42;;;;;;;9.63;4.63;;;26.10;58.00;;;;;;6246903;23;20000;-69
2022/07/29 04:14:08;;;;;;;9.93;4.93;;;26.10;58.30;;;;;;6247199;22;20018;-78
2022/07/29 04:16:34;;;;;;;12.40;5.00;;;26.00;58.60;;;;;;6246623;22;19996;-78
2022/07/29 04:18:59;;;;;;;8.32;4.90;;;26.00;59.00;;;;;;6246143;23;20020;-67
2022/07/29 04:21:25;;;;;;;8.23;5.15;;;25.90;59.40;;;;;;6246489;23;19996;-68
2022/07/29 04:23:51;;;;;;;10.05;5.50;;;25.70;60.20;;;;;;6246607;23;20403;-78
2022/07/29 04:26:18;;;;;;;8.93;5.00;;;25.60;60.40;;;;;;6246503;22;20036;-68
2022/07/29 04:28:44;;;;;;;11.32;5.32;;;25.50;60.30;;;;;;6246471;22;20051;-68
2022/07/29 04:31:10;;;;;;;6.78;5.38;;;25.40;60.80;;;;;;6246645;22;20420;-76
2022/07/29 04:33:36;;;;;;;8.98;5.00;;;25.30;60.20;;;;;;6246681;22;20000;-77
2022/07/29 04:36:02;;;;;;;6.65;5.00;;;25.20;60.30;;;;;;6246554;23;20006;-78
2022/07/29 04:38:27;;;;;;;9.23;4.82;;;25.10;60.80;;;;;;6246350;22;20453;-75
2022/07/29 04:40:53;;;;;;;7.88;4.85;;;25.10;61.40;;;;;;6244287;23;20390;-68
2022/07/29 04:43:19;;;;;;;8.63;4.97;;;25.10;61.70;;;;;;6243787;23;20011;-68
2022/07/29 04:45:44;;;;;;;5.88;4.50;;;25.10;61.20;;;;;;6244549;23;20004;-69
2022/07/29 04:48:10;;;;;;;6.03;4.75;;;25.10;60.80;;;;;;6245769;23;20007;-78
2022/07/29 04:50:40;;;;;;;5.68;4.53;;;25.20;60.90;;;;;;6246325;23;20000;-75
2022/07/29 04:53:06;;;;;;;9.38;4.60;;;25.20;60.50;;;;;;6245519;22;20004;-73
2022/07/29 04:55:32;;;;;;;6.13;4.32;;;25.30;60.60;;;;;;6245422;22;20003;-69
2022/07/29 04:57:57;;;;;;;13.98;4.70;;;25.30;60.90;;;;;;6245291;22;20016;-77
2022/07/29 05:00:23;;;;;;;8.73;5.03;;;25.30;60.80;;;;;;6245351;23;20024;-68
2022/07/29 05:02:49;;;;;;;9.05;4.75;;;25.30;60.50;;;;;;6245188;23;20046;-72
2022/07/29 05:05:15;;;;;;;9.05;5.03;;;25.30;60.30;;;;;;6245331;22;20002;-75
2022/07/29 05:07:41;;;;;;;6.82;4.80;;;25.30;60.30;;;;;;6245815;22;20087;-79
2022/07/29 05:10:07;;;;;;;8.65;5.57;;;25.40;59.70;;;;;;6246108;23;20004;-69
2022/07/29 05:12:33;;;;;;;9.93;5.43;;;25.50;59.50;;;;;;6245589;22;20474;-69
2022/07/29 05:14:59;;;;;;;13.48;5.75;;;25.50;59.70;;;;;;6246551;22;20046;-69
2022/07/29 05:17:25;;;;;;;6.55;5.00;;;25.40;59.20;;;;;;6245935;22;20069;-85
2022/07/29 05:19:51;;;;;;;30.42;12.38;;;25.40;59.70;;;;;;6246219;23;20012;-81
2022/07/29 05:22:19;;;;;;;63.42;8.95;;;25.40;61.70;;;;;;6247175;22;20411;-86
2022/07/29 05:24:44;;;;;;;49.10;8.00;;;25.40;62.30;;;;;;6246332;22;20004;-78
2022/07/29 05:27:10;;;;;;;20.33;7.95;;;25.40;62.50;;;;;;6246791;23;20038;-82
2022/07/29 05:29:36;;;;;;;8.63;5.30;;;25.40;63.20;;;;;;6245928;23;20003;-76
2022/07/29 05:32:02;;;;;;;10.13;5.07;;;25.40;61.10;;;;;;6245963;22;20004;-81
2022/07/29 05:34:28;;;;;;;14.57;5.82;;;25.40;60.10;;;;;;6245861;22;19996;-70
2022/07/29 05:36:54;;;;;;;10.68;5.05;;;25.50;61.60;;;;;;6245905;22;20023;-82
2022/07/29 05:39:20;;;;;;;9.75;4.50;;;25.50;60.90;;;;;;6246320;22;20026;-69
2022/07/29 05:41:46;;;;;;;15.55;5.18;;;25.50;60.40;;;;;;6246088;23;20004;-80
2022/07/29 05:44:13;;;;;;;12.57;4.38;;;25.60;60.70;;;;;;6246344;22;20012;-70
2022/07/29 05:46:39;;;;;;;11.70;4.65;;;25.70;60.30;;;;;;6245977;22;20004;-83
2022/07/29 05:49:06;;;;;;;9.65;4.82;;;25.70;59.80;;;;;;6246155;22;20016;-71
2022/07/29 05:51:32;;;;;;;9.00;4.38;;;25.70;59.80;;;;;;6246126;22;20004;-69
2022/07/29 05:53:58;;;;;;;6.18;4.50;;;25.80;60.70;;;;;;6246283;22;20370;-69
2022/07/29 05:56:24;;;;;;;6.95;4.20;;;25.90;59.70;;;;;;6245854;23;20101;-78
2022/07/29 05:58:50;;;;;;;7.10;3.85;;;25.90;59.00;;;;;;6246282;22;20024;-80
2022/07/29 06:01:16;;;;;;;14.18;4.78;;;26.00;59.20;;;;;;6246487;22;20088;-68
2022/07/29 06:03:42;;;;;;;8.45;4.05;;;26.00;59.00;;;;;;6245921;23;20075;-81
2022/07/29 06:06:08;;;;;;;5.75;4.22;;;26.10;58.00;;;;;;6245844;22;20097;-69
2022/07/29 06:08:34;;;;;;;8.27;4.47;;;26.20;58.60;;;;;;6245983;22;20000;-70
2022/07/29 06:11:01;;;;;;;7.50;4.03;;;26.10;59.10;;;;;;6245683;22;20493;-69
2022/07/29 06:13:26;;;;;;;8.85;4.20;;;26.20;58.90;;;;;;6245622;23;20000;-68
2022/07/29 06:15:52;;;;;;;13.30;4.07;;;26.30;57.90;;;;;;6245823;23;20007;-68
2022/07/29 06:18:18;;;;;;;5.35;3.40;;;26.30;57.30;;;;;;6245425;23;20382;-69
2022/07/29 06:20:44;;;;;;;5.78;3.97;;;26.30;56.70;;;;;;6246045;22;20081;-68
2022/07/29 06:23:09;;;;;;;13.15;4.45;;;26.40;56.90;;;;;;6245221;22;20008;-69
2022/07/29 06:25:36;;;;;;;11.43;3.95;;;26.40;56.80;;;;;;6245614;22;20000;-77
2022/07/29 06:28:02;;;;;;;6.70;3.75;;;26.50;56.60;;;;;;6245261;22;20069;-69
2022/07/29 06:30:29;;;;;;;5.35;3.70;;;26.50;56.60;;;;;;6245370;22;20431;-69
2022/07/29 06:32:55;;;;;;;12.30;3.70;;;26.60;56.50;;;;;;6245441;22;19996;-69
2022/07/29 06:35:21;;;;;;;5.15;3.33;;;26.60;56.40;;;;;;6245703;22;20026;-68
2022/07/29 06:37:47;;;;;;;6.68;3.80;;;26.70;56.40;;;;;;6246153;23;20057;-69
2022/07/29 06:42:57;;;;;;;10.95;3.50;;;26.80;56.30;;;;;;6245176;23;20047;-69
2022/07/29 06:45:23;;;;;;;6.45;3.85;;;26.80;55.70;;;;;;6245877;22;20012;-68
2022/07/29 06:47:49;;;;;;;7.45;3.65;;;26.90;55.00;;;;;;6245721;22;20431;-69
2022/07/29 06:50:15;;;;;;;10.80;3.95;;;26.90;55.00;;;;;;6245642;22;20005;-68
2022/07/29 06:52:41;;;;;;;9.63;4.32;;;27.00;55.40;;;;;;6246211;22;20058;-84
2022/07/29 06:55:07;;;;;;;13.68;4.10;;;27.10;55.60;;;;;;6245596;23;20003;-69
2022/07/29 06:57:33;;;;;;;8.02;3.97;;;27.10;55.30;;;;;;6245716;22;20005;-69
2022/07/29 06:59:59;;;;;;;6.78;3.72;;;27.20;55.10;;;;;;6245704;23;20012;-70
2022/07/29 07:02:25;;;;;;;7.97;4.22;;;27.30;54.90;;;;;;6245607;23;20414;-69
2022/07/29 07:04:51;;;;;;;7.50;4.30;;;27.30;54.30;;;;;;6245250;22;20079;-69
2022/07/29 07:07:17;;;;;;;9.57;4.65;;;27.40;54.20;;;;;;6245205;22;20038;-69
2022/07/29 07:09:43;;;;;;;6.38;3.90;;;27.40;54.00;;;;;;6245693;22;20334;-69
2022/07/29 07:12:08;;;;;;;8.48;3.60;;;27.40;53.70;;;;;;6245126;23;20076;-68
2022/07/29 07:14:34;;;;;;;14.80;4.00;;;27.60;52.10;;;;;;6245030;23;20304;-69
2022/07/29 07:17:00;;;;;;;34.65;5.50;;;27.60;51.70;;;;;;6245774;23;20039;-68
2022/07/29 07:19:26;;;;;;;21.25;4.43;;;27.70;52.00;;;;;;6245207;22;20012;-69
2022/07/29 07:21:55;;;;;;;11.00;3.15;;;27.70;52.00;;;;;;6245604;23;20043;-69
2022/07/29 07:24:20;;;;;;;18.17;3.20;;;27.80;51.60;;;;;;6245158;23;20358;-69
2022/07/29 07:26:46;;;;;;;11.15;3.55;;;27.80;51.40;;;;;;6245126;22;20012;-69
2022/07/29 07:29:12;;;;;;;7.22;3.33;;;27.90;52.30;;;;;;6244917;23;20000;-82
2022/07/29 07:31:38;;;;;;;6.35;3.45;;;28.00;52.00;;;;;;6245355;23;20001;-68
2022/07/29 07:34:04;;;;;;;8.70;3.63;;;28.00;51.20;;;;;;6245391;23;20008;-69
2022/07/29 07:36:30;;;;;;;9.73;3.65;;;28.00;50.80;;;;;;6246637;22;20371;-68
2022/07/29 07:38:55;;;;;;;16.15;3.60;;;28.00;50.80;;;;;;6247190;22;20035;-69
2022/07/29 07:41:22;;;;;;;7.05;3.05;;;28.10;50.30;;;;;;6247250;23;20406;-82
2022/07/29 07:43:48;;;;;;;8.52;3.33;;;28.10;50.10;;;;;;6247192;22;20008;-68
2022/07/29 07:46:14;;;;;;;5.20;3.28;;;28.10;50.10;;;;;;6247203;22;20050;-68
2022/07/29 07:48:40;;;;;;;8.25;3.22;;;28.20;50.30;;;;;;6246819;22;20005;-68
2022/07/29 07:51:07;;;;;;;6.82;3.00;;;28.30;50.30;;;;;;6246972;22;20066;-69
2022/07/29 07:53:32;;;;;;;8.38;2.90;;;28.40;50.30;;;;;;6247544;22;20008;-68
2022/07/29 07:55:58;;;;;;;8.77;3.40;;;28.40;49.80;;;;;;6246543;22;20015;-69
2022/07/29 07:58:24;;;;;;;4.97;3.65;;;28.50;49.20;;;;;;6246403;22;20039;-69
2022/07/29 08:00:50;;;;;;;6.97;3.70;;;28.60;48.60;;;;;;6246640;23;20071;-81
2022/07/29 08:03:15;;;;;;;10.65;3.67;;;28.60;47.90;;;;;;6246759;22;20020;-68
2022/07/29 08:05:41;;;;;;;10.38;4.00;;;28.70;48.00;;;;;;6246572;23;20449;-73
2022/07/29 08:08:07;;;;;;;7.43;3.45;;;28.70;48.00;;;;;;6247016;22;20012;-69
2022/07/29 08:10:51;;;;;;;9.18;3.38;;;28.80;48.20;;;;;;6247016;22;20007;-68
2022/07/29 08:13:18;;;;;;;8.77;4.10;;;28.80;47.90;;;;;;6247193;22;20008;-68
2022/07/29 08:15:45;;;;;;;5.10;3.25;;;28.90;47.50;;;;;;6246672;22;19996;-68
2022/07/29 08:18:12;;;;;;;7.72;3.42;;;29.00;47.50;;;;;;6247046;22;20040;-68
2022/07/29 08:20:38;;;;;;;8.00;3.35;;;29.00;47.40;;;;;;6246586;22;20007;-68
2022/07/29 08:23:08;;;;;;;9.50;3.58;;;29.10;47.20;;;;;;6246728;22;20382;-67
2022/07/29 08:25:35;;;;;;;5.03;3.40;;;29.10;47.20;;;;;;6244593;22;20023;-69
2022/07/29 08:28:01;;;;;;;8.13;3.63;;;29.20;46.80;;;;;;6243417;22;20021;-69
2022/07/29 08:30:26;;;;;;;6.32;3.17;;;29.30;46.50;;;;;;6244262;23;20035;-69
2022/07/29 08:32:52;;;;;;;7.55;3.65;;;29.40;46.50;;;;;;6245666;23;20003;-68
2022/07/29 08:35:19;;;;;;;5.13;3.60;;;29.40;46.20;;;;;;6247136;22;20012;-81
2022/07/29 08:37:45;;;;;;;8.02;4.25;;;29.50;45.90;;;;;;6246918;22;20059;-69
2022/07/29 08:40:12;;;;;;;7.78;3.75;;;29.60;46.00;;;;;;6246644;22;20008;-68
2022/07/29 08:42:37;;;;;;;6.80;3.47;;;29.70;45.70;;;;;;6246451;23;20063;-68
2022/07/29 08:45:04;;;;;;;6.63;3.88;;;29.80;45.80;;;;;;6246470;22;20059;-69
2022/07/29 08:47:30;;;;;;;11.45;3.58;;;29.90;45.60;;;;;;6246923;22;20014;-68
2022/07/29 08:49:56;;;;;;;9.30;3.13;;;29.90;44.30;;;;;;6246621;23;20368;-68
2022/07/29 08:52:25;;;;;;;7.35;3.60;;;30.00;43.80;;;;;;6246420;23;20423;-68
2022/07/29 08:54:52;;;;;;;6.97;3.00;;;30.10;43.90;;;;;;6247033;22;20014;-69
2022/07/29 08:57:19;;;;;;;6.72;3.40;;;30.10;43.70;;;;;;6247147;22;20335;-81
2022/07/29 08:59:47;;;;;;;5.07;3.22;;;30.10;43.60;;;;;;6246624;22;20026;-70
2022/07/29 09:02:19;;;;;;;7.03;3.60;;;30.20;44.60;;;;;;6246725;22;19996;-69
2022/07/29 09:04:45;;;;;;;3.47;2.92;;;30.30;44.50;;;;;;6247223;22;20012;-69
2022/07/29 09:07:15;;;;;;;5.10;3.20;;;30.40;43.90;;;;;;6246863;23;20438;-68
2022/07/29 09:09:42;;;;;;;5.07;3.17;;;30.50;43.60;;;;;;6246553;22;20007;-68
2022/07/29 09:12:11;;;;;;;4.47;3.30;;;30.60;43.40;;;;;;6246576;22;20054;-69
2022/07/29 09:14:37;;;;;;;10.43;3.72;;;30.70;43.30;;;;;;6246736;22;20007;-68
2022/07/29 09:17:03;;;;;;;7.22;3.58;;;30.70;43.20;;;;;;6246484;22;20004;-68
2022/07/29 09:19:37;;;;;;;4.65;3.45;;;30.80;43.00;;;;;;6246511;23;20040;-68
2022/07/29 09:22:05;;;;;;;6.68;3.53;;;30.80;43.20;;;;;;6246626;22;20084;-68
2022/07/29 09:24:44;;;;;;;4.80;3.60;;;30.80;43.00;;;;;;6245975;22;20003;-69
2022/07/29 09:27:28;;;;;;;7.55;4.20;;;30.90;43.00;;;;;;6245272;22;20016;-76
2022/07/29 09:30:03;;;;;;;8.05;4.68;;;31.00;42.90;;;;;;6246063;22;20038;-84
2022/07/29 09:32:29;;;;;;;8.43;4.18;;;31.00;42.80;;;;;;6246022;22;20080;-82
2022/07/29 09:35:21;;;;;;;7.60;3.72;;;31.00;42.70;;;;;;6245225;22;20075;-69
2022/07/29 09:37:48;;;;;;;6.93;3.67;;;31.10;42.20;;;;;;6245261;22;20047;-68
2022/07/29 09:40:19;;;;;;;4.75;3.60;;;31.10;42.30;;;;;;6245325;22;20067;-68
2022/07/29 09:42:45;;;;;;;8.23;3.92;;;31.20;42.40;;;;;;6246605;22;20015;-68
2022/07/29 09:45:12;;;;;;;8.02;4.43;;;31.30;42.20;;;;;;6246282;22;20040;-69
2022/07/29 09:47:48;;;;;;;6.70;4.50;;;31.30;42.20;;;;;;6246037;22;20133;-68
2022/07/29 09:50:15;;;;;;;8.48;4.18;;;31.30;41.90;;;;;;6246151;22;20396;-68
2022/07/29 09:52:50;;;;;;;6.57;4.00;;;31.40;41.00;;;;;;6246058;22;19996;-68
2022/07/29 09:55:16;;;;;;;9.73;4.50;;;31.50;41.20;;;;;;6246213;22;20007;-68
2022/07/29 09:57:42;;;;;;;7.57;4.53;;;31.60;40.70;;;;;;6245612;22;20073;-68
2022/07/29 10:00:09;;;;;;;9.02;4.28;;;31.60;40.90;;;;;;6245914;22;20476;-68
2022/07/29 10:02:37;;;;;;;8.50;4.47;;;31.70;41.30;;;;;;6245513;22;20431;-69
2022/07/29 10:05:07;;;;;;;7.88;3.85;;;31.80;40.90;;;;;;6245838;22;20087;-82
2022/07/29 10:07:51;;;;;;;5.50;3.92;;;31.80;40.90;;;;;;6245467;22;20024;-69
2022/07/29 10:10:37;;;;;;;6.85;4.35;;;31.90;40.70;;;;;;6245842;22;20014;-81
2022/07/29 10:13:12;;;;;;;7.32;4.45;;;32.00;40.40;;;;;;6246150;22;20004;-69
2022/07/29 10:15:40;;;;;;;9.82;4.32;;;32.10;40.10;;;;;;6246249;22;20308;-69
2022/07/29 10:18:07;;;;;;;8.95;4.70;;;32.10;40.10;;;;;;6245717;22;20015;-69
2022/07/29 10:20:34;;;;;;;9.18;4.63;;;32.20;40.30;;;;;;6245910;22;20000;-68
2022/07/29 10:23:00;;;;;;;16.60;4.97;;;32.20;40.70;;;;;;6246169;22;20023;-68
2022/07/29 10:25:26;;;;;;;7.93;4.13;;;32.30;40.70;;;;;;6246028;22;20008;-69
2022/07/29 10:27:53;;;;;;;34.50;5.47;;;32.40;41.00;;;;;;6245547;23;20024;-69
2022/07/29 10:30:20;;;;;;;7.68;4.00;;;32.40;40.80;;;;;;6245436;22;20075;-68
2022/07/29 10:33:07;;;;;;;7.07;3.75;;;32.50;40.10;;;;;;6245553;22;20001;-69
2022/07/29 10:36:01;;;;;;;8.43;4.07;;;32.60;40.10;;;;;;6245941;23;20036;-69
2022/07/29 10:38:32;;;;;;;6.57;3.75;;;32.60;40.10;;;;;;6245530;23;20484;-69
2022/07/29 10:41:26;;;;;;;5.25;3.15;;;32.70;40.20;;;;;;6245648;23;20007;-83
2022/07/29 10:43:59;;;;;;;4.60;3.17;;;32.70;39.80;;;;;;6245604;22;20022;-84
2022/07/29 10:46:26;;;;;;;8.57;3.15;;;32.70;40.00;;;;;;6246079;22;20038;-68
2022/07/29 10:49:16;;;;;;;8.52;3.30;;;32.70;39.90;;;;;;6246129;22;20486;-69
2022/07/29 10:52:01;;;;;;;5.18;3.10;;;32.80;39.70;;;;;;6246113;22;20012;-69
2022/07/29 10:54:39;;;;;;;6.93;3.20;;;32.80;40.00;;;;;;6245568;22;20418;-84
2022/07/29 10:57:26;;;;;;;4.68;3.25;;;32.80;40.30;;;;;;6245832;22;20004;-69
2022/07/29 11:00:01;;;;;;;10.20;3.45;;;32.90;40.40;;;;;;6245797;22;20399;-80
2022/07/29 11:02:44;;;;;;;7.22;3.30;;;32.90;39.70;;;;;;6245339;23;20418;-69
2022/07/29 11:05:19;;;;;;;8.05;3.20;;;32.90;40.10;;;;;;6245606;22;20023;-70
2022/07/29 11:08:09;;;;;;;7.95;3.47;;;33.00;39.80;;;;;;6244683;22;20051;-73
2022/07/29 11:10:35;;;;;;;4.93;3.30;;;33.10;40.40;;;;;;6246193;23;20521;-70
2022/07/29 11:13:01;;;;;;;6.10;3.08;;;33.10;40.10;;;;;;6245971;23;20079;-69
2022/07/29 11:15:26;;;;;;;8.05;3.60;;;33.20;39.60;;;;;;6244036;23;20435;-70
2022/07/29 11:17:56;;;;;;;8.25;3.00;;;33.20;40.10;;;;;;6244773;23;20362;-68
2022/07/29 11:20:44;;;;;;;4.82;2.63;;;33.30;39.70;;;;;;6247816;22;20012;-69
2022/07/29 11:23:39;;;;;;;5.05;2.78;;;33.40;40.00;;;;;;6247569;22;20008;-70
2022/07/29 11:26:24;;;;;;;9.75;3.15;;;33.40;39.10;;;;;;6247457;22;20331;-77
2022/07/29 11:28:53;;;;;;;8.07;2.75;;;33.40;39.30;;;;;;6186161;23;20020;-69
2022/07/29 11:31:42;;;;;;;11.82;2.65;;;33.40;39.50;;;;;;6183736;23;20515;-69
2022/07/29 11:34:32;;;;;;;10.05;3.00;;;33.40;39.10;;;;;;6183778;23;20016;-72
2022/07/29 11:37:10;;;;;;;4.68;2.95;;;33.50;39.20;;;;;;6187243;23;20363;-83
2022/07/29 11:39:38;;;;;;;6.80;2.90;;;33.50;39.30;;;;;;6186922;23;20483;-81
2022/07/29 11:42:19;;;;;;;6.68;3.08;;;33.60;39.70;;;;;;6186598;23;20341;-83
2022/07/29 11:45:07;;;;;;;5.77;2.90;;;33.50;39.60;;;;;;6186282;23;20063;-69
2022/07/29 11:47:39;;;;;;;5.78;3.05;;;33.50;39.10;;;;;;6186363;23;20428;-68
2022/07/29 11:50:08;;;;;;;8.13;2.83;;;33.40;39.60;;;;;;6187088;23;20036;-68
2022/07/29 11:52:33;;;;;;;4.65;2.88;;;33.40;39.40;;;;;;6186525;23;20012;-79
2022/07/29 11:55:03;;;;;;;4.18;2.47;;;33.50;40.00;;;;;;6186618;23;20009;-68
2022/07/29 11:57:29;;;;;;;7.20;3.33;;;33.50;39.70;;;;;;6186538;23;20055;-69
2022/07/29 11:59:57;;;;;;;5.88;2.97;;;33.50;39.70;;;;;;6186424;23;20384;-68
2022/07/29 12:02:23;;;;;;;6.13;3.10;;;33.60;39.40;;;;;;6186503;23;20002;-69
2022/07/29 12:04:53;;;;;;;6.10;3.10;;;33.60;38.70;;;;;;6186523;23;20062;-71
2022/07/29 12:07:30;;;;;;;4.22;2.97;;;33.70;39.60;;;;;;6186725;23;20379;-68
2022/07/29 12:09:56;;;;;;;5.70;2.67;;;33.70;39.90;;;;;;6187220;23;20004;-75
2022/07/29 12:12:22;;;;;;;6.30;3.20;;;33.70;40.80;;;;;;6186483;23;20009;-68
2022/07/29 12:14:48;;;;;;;8.20;2.90;;;33.70;39.10;;;;;;6186262;23;20008;-80
2022/07/29 12:17:34;;;;;;;4.70;3.25;;;33.80;40.40;;;;;;6186654;23;19997;-68
2022/07/29 12:20:04;;;;;;;6.55;2.97;;;33.80;39.70;;;;;;6186949;23;20010;-68
2022/07/29 12:22:32;;;;;;;5.40;3.38;;;33.80;39.70;;;;;;6184354;23;20387;-75
2022/07/29 12:25:04;;;;;;;6.35;4.07;;;33.80;38.40;;;;;;6182604;23;20483;-67
2022/07/29 12:27:30;;;;;;;5.35;3.53;;;33.80;38.10;;;;;;6214982;23;20048;-68
2022/07/29 12:30:02;;;;;;;6.55;3.20;;;33.70;38.10;;;;;;6244250;22;19996;-68
2022/07/29 12:32:44;;;;;;;4.70;3.22;;;33.70;37.90;;;;;;6246376;22;20422;-68
2022/07/29 12:35:20;;;;;;;5.03;3.20;;;33.70;38.50;;;;;;6246825;22;20079;-81
2022/07/29 12:37:48;;;;;;;4.50;3.38;;;33.70;37.80;;;;;;6246972;22;20008;-76
2022/07/29 12:40:16;;;;;;;5.47;3.55;;;33.70;37.80;;;;;;6246500;22;20362;-68
2022/07/29 12:43:22;;;;;;;6.80;3.42;;;33.70;37.80;;;;;;6246762;22;20422;-68
2022/07/29 12:45:50;;;;;;;4.03;3.20;;;33.70;38.00;;;;;;6246684;22;20008;-69
2022/07/29 12:48:16;;;;;;;6.55;3.20;;;33.80;38.40;;;;;;6245075;22;20339;-69
2022/07/29 12:51:01;;;;;;;5.78;3.58;;;33.90;37.40;;;;;;6242997;22;20439;-69
2022/07/29 12:53:28;;;;;;;5.68;2.83;;;33.80;37.60;;;;;;6244289;22;20461;-69
2022/07/29 12:55:55;;;;;;;3.92;2.90;;;33.90;36.90;;;;;;6246545;22;20000;-68
2022/07/29 12:58:31;;;;;;;3.95;3.10;;;33.80;37.40;;;;;;6246623;22;20071;-68
2022/07/29 13:01:22;;;;;;;6.20;2.95;;;33.90;37.30;;;;;;6246675;22;20000;-69